Página principal
METAR-TAF:

METAR-TAF

Aeroportos :

Aeroporto Internacional de Chengdu Shuangliu

Chengdu, China

latitude: 30-40N, longitude: 104-01E, altura: 508 m

Observação actual do tempo

O boletim foi feito há 22 minutos, às 19:00 UTC
Vento 2 kt de oeste
Temperatura 10°C
Humidade 87%
Pressão 1025 hPa
Visibilidade: 6000 m
Nuvens dispersasa uma altura de 4000 ft

METAR: ZUUU 201900Z 27001MPS 6000 SCT040 10/08 Q1025 NOSIG

Hora: 03:22 (19:22 UTC)

Previsão

O boletim foi feito há 4 horas e 22 minutos, às 15:00 UTC
Previsão válida de 20 às 18 UTC a 21 às 18 UTC
Vento 6 kt de nor-nordeste
Visibilidade: 5000 m
Nuvens dispersasa uma altura de 5000 ft
neblina

TAF: ZUUU 201500Z 2018/2118 02003MPS 5000 BR SCT050 TX12/2107Z TN07/2021Z

Observações e previsões do tempo de mais de 4000 aeroportos (mensagens METAR e TAF).

As estações disponíveis são os pontos amarelos e vermelhos sobre o mapa.

Mova o rato sobre o mapa para ver o nome da estação.

Depois clique no ponto para visualizar as observações e previsões meteorológicas.

Para alterar o mapa : clique nos botões verdes com uma cruz preta para aumentar o zoom; no botão verde com uma pitada de zoom; ou nas setas verdes para mapas adjacentes.


METAR-TAF: